createdAt,value
2022-09-23T00:01:02.659Z,10.18
2022-09-23T00:03:30.957Z,8.93
2022-09-23T00:06:10.600Z,6.63
2022-09-23T00:08:38.333Z,7.35
2022-09-23T00:11:11.359Z,5.88
2022-09-23T00:13:39.921Z,7.40
2022-09-23T00:16:09.576Z,7.30
2022-09-23T00:18:36.420Z,9.68
2022-09-23T00:21:10.105Z,11.07
2022-09-23T00:23:39.082Z,8.35
2022-09-23T00:26:07.852Z,7.03
2022-09-23T00:28:35.868Z,11.68
2022-09-23T00:31:08.193Z,10.68
2022-09-23T00:33:34.946Z,6.32
2022-09-23T00:36:03.871Z,5.93
2022-09-23T00:38:30.623Z,6.82
2022-09-23T00:40:58.345Z,8.30
2022-09-23T00:43:46.211Z,10.15
2022-09-23T00:46:29.635Z,8.27
2022-09-23T00:49:04.646Z,5.32
2022-09-23T00:51:41.216Z,6.28
2022-09-23T00:54:08.279Z,7.45
2022-09-23T00:56:36.654Z,5.80
2022-09-23T00:59:04.801Z,5.72
2022-09-23T01:01:31.702Z,10.27
2022-09-23T01:03:58.750Z,8.50
2022-09-23T01:06:25.519Z,6.88
2022-09-23T01:08:52.774Z,6.47
2022-09-23T01:11:37.999Z,5.53
2022-09-23T01:14:32.037Z,10.30
2022-09-23T01:17:04.377Z,7.47
2022-09-23T01:19:57.042Z,8.35
2022-09-23T01:22:59.246Z,7.68
2022-09-23T01:26:07.093Z,11.98
2022-09-23T01:29:17.675Z,5.50
2022-09-23T01:31:55.623Z,6.57
2022-09-23T01:34:30.972Z,7.03
2022-09-23T01:37:12.974Z,8.40
2022-09-23T01:40:10.259Z,7.28
2022-09-23T01:42:43.183Z,5.95
2022-09-23T01:45:25.263Z,8.85
2022-09-23T01:48:20.367Z,10.82
2022-09-23T01:51:23.822Z,6.90
2022-09-23T01:53:59.744Z,10.25
2022-09-23T01:56:37.454Z,5.55
2022-09-23T01:59:35.664Z,8.30
2022-09-23T02:02:20.308Z,6.40
2022-09-23T02:05:02.364Z,9.55
2022-09-23T02:08:04.310Z,8.80
2022-09-23T02:10:43.051Z,9.90
2022-09-23T02:13:20.944Z,7.90
2022-09-23T02:15:52.969Z,13.20
2022-09-23T02:18:26.170Z,9.30
2022-09-23T02:20:57.240Z,6.55
2022-09-23T02:23:29.801Z,6.60
2022-09-23T02:28:48.822Z,11.32
2022-09-23T02:31:25.630Z,9.52
2022-09-23T02:34:21.864Z,7.53
2022-09-23T02:37:23.797Z,7.20
2022-09-23T02:40:11.290Z,6.97
2022-09-23T02:43:00.984Z,7.95
2022-09-23T02:45:27.793Z,8.73
2022-09-23T02:48:02.341Z,9.50
2022-09-23T02:50:30.870Z,9.70
2022-09-23T02:52:59.336Z,8.82
2022-09-23T02:55:31.217Z,9.05
2022-09-23T02:58:01.373Z,9.02
2022-09-23T03:01:15.360Z,8.07
2022-09-23T03:03:59.840Z,7.25
2022-09-23T03:06:46.165Z,8.18
2022-09-23T03:09:26.417Z,8.35
2022-09-23T03:12:05.832Z,9.40
2022-09-23T03:14:44.501Z,9.93
2022-09-23T03:17:41.912Z,9.05
2022-09-23T03:20:34.070Z,10.15
2022-09-23T03:23:14.768Z,17.63
2022-09-23T03:25:44.603Z,11.50
2022-09-23T03:28:12.180Z,10.43
2022-09-23T03:30:40.338Z,8.23
2022-09-23T03:33:09.557Z,8.38
2022-09-23T03:36:01.234Z,7.32
2022-09-23T03:38:33.901Z,9.75
2022-09-23T03:41:04.055Z,13.15
2022-09-23T03:43:36.617Z,8.10
2022-09-23T03:46:07.018Z,9.18
2022-09-23T03:48:33.926Z,10.73
2022-09-23T03:51:27.729Z,9.95
2022-09-23T03:53:54.389Z,9.98
2022-09-23T03:56:22.148Z,8.13
2022-09-23T03:58:48.819Z,8.05
2022-09-23T04:01:15.726Z,13.82
2022-09-23T04:03:42.418Z,10.10
2022-09-23T04:06:10.337Z,9.65
2022-09-23T04:08:36.985Z,9.73
2022-09-23T04:11:04.661Z,8.60
2022-09-23T04:13:32.200Z,9.88
2022-09-23T04:15:59.114Z,11.48
2022-09-23T04:18:25.959Z,12.32
2022-09-23T04:20:59.851Z,14.75
2022-09-23T04:23:27.625Z,17.27
2022-09-23T04:25:54.297Z,12.13
2022-09-23T04:28:22.299Z,9.65
2022-09-23T04:30:51.799Z,12.13
2022-09-23T04:33:21.329Z,10.45
2022-09-23T04:35:50.987Z,11.93
2022-09-23T04:38:21.892Z,10.93
2022-09-23T04:40:49.148Z,11.25
2022-09-23T04:43:16.775Z,11.15
2022-09-23T04:45:44.270Z,14.10
2022-09-23T04:48:12.748Z,15.50
2022-09-23T04:50:40.006Z,12.80
2022-09-23T04:53:06.721Z,16.92
2022-09-23T04:55:35.991Z,16.90
2022-09-23T04:58:02.641Z,25.60
2022-09-23T05:00:29.420Z,26.42
2022-09-23T05:02:58.575Z,17.67
2022-09-23T05:05:25.234Z,17.75
2022-09-23T05:07:54.892Z,14.75
2022-09-23T05:10:22.372Z,17.00
2022-09-23T05:12:51.454Z,14.05
2022-09-23T05:15:21.167Z,12.90
2022-09-23T05:17:49.126Z,13.43
2022-09-23T05:20:15.979Z,13.73
2022-09-23T05:22:43.624Z,14.95
2022-09-23T05:25:10.279Z,16.83
2022-09-23T05:27:36.925Z,17.80
2022-09-23T05:30:07.210Z,12.27
2022-09-23T05:32:33.885Z,14.82
2022-09-23T05:35:00.511Z,12.55
2022-09-23T05:37:27.246Z,18.63
2022-09-23T05:39:53.860Z,12.15
2022-09-23T05:42:21.033Z,15.50
2022-09-23T05:44:47.787Z,15.43
2022-09-23T05:47:14.688Z,17.52
2022-09-23T05:49:58.577Z,17.52
2022-09-23T05:52:25.898Z,13.57
2022-09-23T05:54:52.574Z,11.30
2022-09-23T05:57:19.734Z,20.42
2022-09-23T05:59:47.665Z,19.20
2022-09-23T06:02:15.065Z,22.10
2022-09-23T06:04:42.598Z,14.02
2022-09-23T06:07:09.595Z,14.73
2022-09-23T06:09:36.897Z,17.92
2022-09-23T06:12:04.424Z,17.13
2022-09-23T06:14:31.103Z,16.05
2022-09-23T06:16:57.794Z,15.45
2022-09-23T06:19:24.472Z,12.15
2022-09-23T06:21:51.102Z,14.38
2022-09-23T06:24:21.253Z,14.75
2022-09-23T06:26:49.670Z,15.75
2022-09-23T06:29:18.059Z,14.70
2022-09-23T06:31:44.791Z,18.02
2022-09-23T06:34:13.961Z,12.77
2022-09-23T06:36:46.429Z,16.65
2022-09-23T06:39:16.432Z,15.30
2022-09-23T06:41:45.091Z,13.23
2022-09-23T06:44:13.584Z,16.08
2022-09-23T06:46:40.416Z,12.07
2022-09-23T06:49:07.160Z,13.85
2022-09-23T06:51:34.338Z,15.73
2022-09-23T06:54:00.988Z,15.93
2022-09-23T06:56:27.794Z,12.55
2022-09-23T06:58:54.688Z,13.82
2022-09-23T07:01:22.238Z,17.67
2022-09-23T07:03:48.963Z,16.55
2022-09-23T07:06:16.115Z,19.13
2022-09-23T07:08:44.841Z,12.60
2022-09-23T07:11:13.003Z,20.45
2022-09-23T07:13:41.184Z,12.82
2022-09-23T07:16:09.051Z,14.18
2022-09-23T07:18:37.353Z,10.80
2022-09-23T07:21:15.347Z,10.70
2022-09-23T07:23:43.467Z,13.40
2022-09-23T07:26:10.676Z,17.40
2022-09-23T07:28:38.245Z,14.35
2022-09-23T07:31:08.472Z,13.38
2022-09-23T07:33:39.877Z,12.68
2022-09-23T07:36:12.314Z,13.80
2022-09-23T07:38:44.248Z,14.38
2022-09-23T07:41:14.414Z,13.30
2022-09-23T07:43:41.235Z,11.05
2022-09-23T07:46:11.518Z,11.38
2022-09-23T07:48:39.059Z,16.50
2022-09-23T07:51:08.706Z,12.93
2022-09-23T07:53:35.957Z,13.20
2022-09-23T07:56:06.374Z,18.33
2022-09-23T07:58:34.918Z,10.63
2022-09-23T08:01:11.155Z,12.10
2022-09-23T08:03:39.164Z,12.02
2022-09-23T08:06:11.853Z,11.73
2022-09-23T08:08:43.321Z,12.90
2022-09-23T08:11:13.139Z,10.53
2022-09-23T08:13:40.400Z,16.60
2022-09-23T08:16:07.389Z,13.27
2022-09-23T08:18:34.414Z,11.77
2022-09-23T08:21:01.438Z,10.82
2022-09-23T08:23:33.203Z,13.95
2022-09-23T08:26:01.891Z,11.82
2022-09-23T08:28:28.747Z,11.82
2022-09-23T08:30:56.128Z,12.32
2022-09-23T08:33:23.983Z,10.98
2022-09-23T08:35:52.109Z,11.73
2022-09-23T08:38:19.502Z,15.18
2022-09-23T08:40:49.327Z,12.13
2022-09-23T08:43:28.264Z,12.07
2022-09-23T08:45:57.295Z,10.77
2022-09-23T08:48:45.441Z,14.60
2022-09-23T08:51:16.041Z,13.75
2022-09-23T08:53:45.470Z,10.57
2022-09-23T08:56:22.174Z,11.50
2022-09-23T08:58:51.534Z,18.85
2022-09-23T09:01:36.895Z,9.60
2022-09-23T09:04:21.664Z,8.77
2022-09-23T09:10:18.914Z,11.35
2022-09-23T09:12:50.540Z,14.95
2022-09-23T09:15:25.194Z,10.00
2022-09-23T09:18:10.091Z,9.98
2022-09-23T09:21:08.383Z,8.48
2022-09-23T09:23:57.834Z,12.43
2022-09-23T09:26:27.658Z,10.57
2022-09-23T09:29:34.119Z,11.63
2022-09-23T09:32:16.555Z,12.77
2022-09-23T09:34:54.546Z,9.90
2022-09-23T09:37:35.720Z,10.88
2022-09-23T09:40:02.873Z,13.75
2022-09-23T09:42:40.938Z,9.60
2022-09-23T09:45:15.063Z,10.45
2022-09-23T09:48:10.892Z,11.65
2022-09-23T09:50:49.409Z,9.85
2022-09-23T09:53:30.336Z,9.85
2022-09-23T09:56:08.855Z,9.57
2022-09-23T09:58:47.777Z,9.52
2022-09-23T10:01:32.834Z,9.98
2022-09-23T10:04:21.433Z,12.63
2022-09-23T10:07:09.360Z,11.05
2022-09-23T10:09:38.276Z,12.38
2022-09-23T10:12:20.226Z,10.55
2022-09-23T10:14:51.224Z,9.70
2022-09-23T10:17:31.471Z,12.65
2022-09-23T10:20:06.762Z,8.88
2022-09-23T10:22:37.333Z,10.85
2022-09-23T10:25:20.185Z,9.32
2022-09-23T10:27:47.284Z,8.60
2022-09-23T10:30:25.387Z,9.40
2022-09-23T10:32:54.812Z,8.32
2022-09-23T10:35:24.410Z,7.10
2022-09-23T10:37:56.163Z,8.93
2022-09-23T10:40:59.097Z,12.52
2022-09-23T10:44:03.599Z,7.72
2022-09-23T10:46:45.798Z,6.07
2022-09-23T10:49:37.691Z,6.88
2022-09-23T10:52:10.014Z,7.20
2022-09-23T10:54:56.445Z,8.45
2022-09-23T10:57:44.799Z,7.03
2022-09-23T11:00:25.683Z,7.45
2022-09-23T11:03:20.242Z,8.30
2022-09-23T11:05:55.684Z,7.65
2022-09-23T11:08:37.934Z,7.35
2022-09-23T11:11:23.028Z,6.90
2022-09-23T11:14:16.828Z,7.07
2022-09-23T11:16:54.509Z,6.82
2022-09-23T11:19:45.707Z,7.28
2022-09-23T11:22:23.056Z,13.88
2022-09-23T11:25:14.011Z,6.60
2022-09-23T11:28:13.033Z,7.03
2022-09-23T11:31:10.137Z,5.28
2022-09-23T11:34:01.614Z,6.38
2022-09-23T11:36:36.391Z,5.95
2022-09-23T11:39:14.424Z,5.65
2022-09-23T11:41:43.134Z,6.93
2022-09-23T11:44:44.585Z,7.88
2022-09-23T11:47:21.655Z,5.93
2022-09-23T11:50:04.414Z,5.18
2022-09-23T11:52:44.995Z,6.55
2022-09-23T11:55:21.841Z,5.00
2022-09-23T11:57:52.999Z,6.50
2022-09-23T12:00:34.118Z,9.45
2022-09-23T12:03:18.247Z,7.95
2022-09-23T12:05:48.145Z,4.40
2022-09-23T12:08:36.647Z,6.53
2022-09-23T12:11:30.303Z,6.13
2022-09-23T12:14:15.539Z,7.30
2022-09-23T12:16:50.662Z,5.13
2022-09-23T12:19:47.487Z,5.18
2022-09-23T12:22:37.000Z,5.93
2022-09-23T12:25:34.396Z,5.82
2022-09-23T12:28:06.223Z,9.65
2022-09-23T12:30:35.711Z,6.95
2022-09-23T12:33:29.851Z,5.10
2022-09-23T12:36:04.872Z,5.85
2022-09-23T12:38:38.648Z,4.03
2022-09-23T12:41:23.886Z,5.95
2022-09-23T12:44:11.769Z,4.85
2022-09-23T12:46:39.760Z,4.55
2022-09-23T12:49:35.550Z,4.57
2022-09-23T12:52:10.956Z,5.60
2022-09-23T12:54:39.104Z,13.60
2022-09-23T12:57:13.593Z,5.68
2022-09-23T12:59:58.337Z,8.48
2022-09-23T13:02:36.010Z,6.03
2022-09-23T13:05:22.853Z,5.25
2022-09-23T13:07:50.456Z,6.95
2022-09-23T13:10:30.596Z,7.43
2022-09-23T13:12:59.072Z,8.85
2022-09-23T13:15:36.438Z,5.18
2022-09-23T13:18:21.460Z,4.95
2022-09-23T13:20:52.999Z,6.35
2022-09-23T13:23:26.647Z,5.32
2022-09-23T13:25:57.116Z,4.82
2022-09-23T13:28:34.404Z,6.40
2022-09-23T13:31:14.738Z,4.75
2022-09-23T13:33:46.352Z,4.82
2022-09-23T13:36:16.823Z,5.20
2022-09-23T13:38:45.963Z,6.75
2022-09-23T13:41:28.445Z,5.75
2022-09-23T13:44:00.210Z,6.50
2022-09-23T13:46:34.948Z,7.75
2022-09-23T13:49:02.676Z,5.88
2022-09-23T13:51:34.038Z,5.35
2022-09-23T13:54:04.013Z,6.87
2022-09-23T13:56:33.463Z,5.07
2022-09-23T13:59:38.628Z,7.90
2022-09-23T14:02:10.775Z,4.05
2022-09-23T14:07:07.138Z,9.65
2022-09-23T14:09:35.593Z,5.90
2022-09-23T14:12:04.130Z,10.35
2022-09-23T14:14:37.083Z,7.20
2022-09-23T14:17:06.365Z,6.75
2022-09-23T14:19:35.582Z,7.28
2022-09-23T14:22:02.426Z,5.40
2022-09-23T14:24:34.169Z,5.75
2022-09-23T14:27:04.347Z,6.45
2022-09-23T14:29:36.713Z,8.77
2022-09-23T14:32:17.245Z,8.27
2022-09-23T14:34:49.444Z,7.55
2022-09-23T14:40:01.672Z,5.95
2022-09-23T14:42:31.562Z,6.63
2022-09-23T14:44:58.231Z,6.20
2022-09-23T14:47:25.271Z,9.70
2022-09-23T14:50:14.985Z,9.82
2022-09-23T14:52:49.444Z,9.40
2022-09-23T14:55:17.475Z,8.52
2022-09-23T14:57:45.220Z,8.98
2022-09-23T15:00:18.875Z,8.07
2022-09-23T15:02:57.617Z,9.23
2022-09-23T15:05:43.174Z,11.63
2022-09-23T15:08:19.848Z,9.38
2022-09-23T15:10:47.024Z,12.98
2022-09-23T15:13:18.651Z,8.73
2022-09-23T15:15:46.055Z,8.32
2022-09-23T15:18:23.947Z,12.05
2022-09-23T15:20:54.431Z,8.75
2022-09-23T15:23:40.840Z,7.45
2022-09-23T15:26:17.870Z,12.05
2022-09-23T15:28:46.136Z,11.18
2022-09-23T15:31:16.032Z,8.40
2022-09-23T15:33:47.592Z,6.60
2022-09-23T15:36:23.511Z,8.65
2022-09-23T15:38:57.166Z,9.32
2022-09-23T15:41:24.336Z,8.75
2022-09-23T15:43:51.435Z,7.85
2022-09-23T15:46:25.024Z,9.25
2022-09-23T15:49:23.060Z,9.25
2022-09-23T15:51:52.000Z,11.25
2022-09-23T15:54:19.583Z,12.30
2022-09-23T15:56:47.958Z,7.65
2022-09-23T15:59:14.603Z,7.53
2022-09-23T16:01:43.160Z,10.45
2022-09-23T16:04:11.242Z,14.38
2022-09-23T16:06:37.975Z,13.85
2022-09-23T16:09:04.700Z,21.92
2022-09-23T16:11:31.914Z,16.60
2022-09-23T16:14:00.386Z,12.38
2022-09-23T16:16:28.070Z,17.58
2022-09-23T16:18:55.202Z,13.80
2022-09-23T16:21:25.479Z,15.60
2022-09-23T16:23:53.317Z,12.48
2022-09-23T16:26:21.721Z,10.23
2022-09-23T16:28:59.022Z,13.60
2022-09-23T16:31:31.205Z,10.25
2022-09-23T16:34:02.011Z,12.45
2022-09-23T16:36:38.185Z,12.07
2022-09-23T16:39:07.328Z,15.85
2022-09-23T16:41:34.107Z,17.25
2022-09-23T16:44:04.267Z,17.40
2022-09-23T16:46:31.879Z,16.33
2022-09-23T16:49:00.266Z,13.45
2022-09-23T16:51:38.391Z,14.25
2022-09-23T16:54:10.317Z,14.07
2022-09-23T16:56:40.265Z,15.43
2022-09-23T16:59:07.061Z,16.10
2022-09-23T17:01:52.293Z,16.80
2022-09-23T17:04:19.508Z,18.30
2022-09-23T17:06:50.853Z,15.68
2022-09-23T17:09:19.790Z,21.87
2022-09-23T17:11:48.927Z,18.70
2022-09-23T17:14:16.294Z,27.48
2022-09-23T17:16:43.250Z,18.77
2022-09-23T17:19:11.735Z,27.95
2022-09-23T17:21:38.868Z,17.55
2022-09-23T17:24:06.180Z,43.58
2022-09-23T17:26:34.126Z,21.48
2022-09-23T17:29:02.923Z,17.92
2022-09-23T17:31:30.597Z,17.02
2022-09-23T17:33:57.511Z,26.65
2022-09-23T17:36:24.222Z,28.27
2022-09-23T17:38:54.090Z,20.92
2022-09-23T17:41:21.304Z,20.55
2022-09-23T17:43:53.388Z,16.00
2022-09-23T17:46:20.092Z,18.90
2022-09-23T17:48:48.709Z,22.42
2022-09-23T17:51:18.778Z,22.35
2022-09-23T17:53:47.690Z,19.77
2022-09-23T17:56:25.004Z,31.42
2022-09-23T17:58:53.235Z,33.35
2022-09-23T18:01:24.543Z,41.30
2022-09-23T18:03:59.146Z,31.90
2022-09-23T18:06:28.255Z,32.83
2022-09-23T18:08:56.055Z,27.08
2022-09-23T18:11:24.685Z,24.27
2022-09-23T18:13:53.830Z,27.48
2022-09-23T18:16:23.820Z,20.55
2022-09-23T18:18:52.358Z,24.10
2022-09-23T18:21:20.415Z,24.42
2022-09-23T18:23:47.547Z,21.42
2022-09-23T18:26:23.232Z,23.63
2022-09-23T18:28:52.652Z,24.73
2022-09-23T18:31:20.437Z,20.77
2022-09-23T18:33:51.496Z,22.58
2022-09-23T18:36:19.927Z,16.55
2022-09-23T18:38:47.423Z,21.85
2022-09-23T18:41:14.601Z,24.13
2022-09-23T18:43:46.307Z,21.70
2022-09-23T18:46:20.934Z,22.30
2022-09-23T18:49:07.092Z,23.55
2022-09-23T18:51:36.511Z,19.27
2022-09-23T18:54:05.738Z,18.88
2022-09-23T18:56:39.523Z,23.17
2022-09-23T18:59:08.477Z,22.20
2022-09-23T19:01:35.580Z,19.45
2022-09-23T19:04:03.549Z,23.30
2022-09-23T19:06:32.520Z,22.02
2022-09-23T19:08:59.434Z,22.35
2022-09-23T19:11:26.840Z,68.65
2022-09-23T19:14:00.170Z,38.40
2022-09-23T19:16:27.287Z,25.05
2022-09-23T19:18:54.299Z,21.13
2022-09-23T19:21:22.903Z,22.10
2022-09-23T19:23:52.875Z,24.98
2022-09-23T19:26:23.689Z,24.58
2022-09-23T19:28:56.684Z,22.52
2022-09-23T19:31:29.681Z,23.45
2022-09-23T19:34:25.884Z,20.77
2022-09-23T19:36:55.811Z,22.45
2022-09-23T19:39:24.842Z,21.13
2022-09-23T19:41:52.504Z,22.88
2022-09-23T19:44:19.959Z,21.38
2022-09-23T19:46:53.526Z,25.45
2022-09-23T19:49:24.392Z,18.30
2022-09-23T19:51:51.548Z,23.40
2022-09-23T19:54:20.366Z,24.50
2022-09-23T19:56:48.563Z,22.40
2022-09-23T19:59:18.820Z,23.55
2022-09-23T20:01:47.351Z,26.10
2022-09-23T20:04:15.503Z,22.48
2022-09-23T20:06:42.367Z,24.58
2022-09-23T20:09:09.136Z,28.20
2022-09-23T20:11:35.858Z,26.05
2022-09-23T20:14:04.170Z,26.23
2022-09-23T20:16:33.809Z,26.67
2022-09-23T20:19:01.518Z,27.98
2022-09-23T20:21:29.178Z,23.90
2022-09-23T20:23:56.747Z,27.92
2022-09-23T20:26:43.596Z,25.35
2022-09-23T20:29:10.974Z,27.02
2022-09-23T20:31:40.238Z,26.88
2022-09-23T20:34:10.100Z,26.63
2022-09-23T20:36:37.187Z,25.98
2022-09-23T20:39:06.954Z,24.02
2022-09-23T20:41:37.738Z,25.35
2022-09-23T20:44:07.693Z,24.23
2022-09-23T20:46:35.770Z,22.80
2022-09-23T20:49:04.877Z,25.20
2022-09-23T20:51:34.816Z,25.30
2022-09-23T20:54:02.245Z,23.63
2022-09-23T20:56:29.404Z,28.83
2022-09-23T20:59:04.586Z,30.75
2022-09-23T21:01:36.390Z,21.58
2022-09-23T21:04:05.469Z,26.00
2022-09-23T21:06:34.876Z,24.08
2022-09-23T21:09:01.710Z,24.25
2022-09-23T21:11:29.090Z,22.75
2022-09-23T21:13:56.450Z,20.85
2022-09-23T21:16:23.927Z,22.08
2022-09-23T21:18:52.202Z,22.80
2022-09-23T21:21:19.875Z,24.92
2022-09-23T21:23:47.214Z,23.05
2022-09-23T21:26:17.725Z,25.02
2022-09-23T21:28:46.431Z,25.35
2022-09-23T21:31:23.097Z,26.90
2022-09-23T21:34:02.374Z,25.20
2022-09-23T21:36:30.847Z,28.73
2022-09-23T21:38:58.059Z,28.25
2022-09-23T21:41:25.327Z,26.63
2022-09-23T21:43:52.092Z,26.08
2022-09-23T21:46:20.498Z,25.77
2022-09-23T21:48:50.082Z,30.42
2022-09-23T21:51:23.052Z,30.35
2022-09-23T21:53:49.870Z,28.55
2022-09-23T21:56:23.428Z,25.10
2022-09-23T21:58:52.338Z,31.85
2022-09-23T22:01:22.036Z,25.83
2022-09-23T22:04:05.116Z,32.30
2022-09-23T22:06:32.225Z,30.63
2022-09-23T22:09:01.950Z,26.63
2022-09-23T22:11:49.485Z,28.73
2022-09-23T22:14:18.173Z,30.05
2022-09-23T22:16:48.147Z,26.45
2022-09-23T22:19:15.901Z,26.77
2022-09-23T22:21:45.006Z,31.85
2022-09-23T22:24:12.921Z,26.38
2022-09-23T22:26:42.446Z,28.48
2022-09-23T22:29:30.802Z,27.15
2022-09-23T22:32:16.655Z,28.25
2022-09-23T22:34:51.393Z,28.48
2022-09-23T22:37:26.074Z,29.67
2022-09-23T22:39:53.397Z,29.65
2022-09-23T22:42:23.189Z,31.60
2022-09-23T22:44:50.710Z,30.40
2022-09-23T22:47:18.524Z,30.67
2022-09-23T22:49:49.530Z,35.75
2022-09-23T22:52:20.852Z,34.15
2022-09-23T22:54:47.535Z,30.15
2022-09-23T22:57:15.171Z,32.72
2022-09-23T22:59:43.752Z,32.05
2022-09-23T23:02:10.422Z,35.47
2022-09-23T23:04:37.139Z,37.13
2022-09-23T23:07:04.208Z,35.33
2022-09-23T23:09:31.103Z,31.98
2022-09-23T23:11:57.740Z,31.80
2022-09-23T23:14:26.287Z,37.25
2022-09-23T23:16:53.467Z,35.08
2022-09-23T23:19:20.180Z,35.80
2022-09-23T23:21:46.906Z,34.85
2022-09-23T23:24:17.824Z,34.58
2022-09-23T23:26:44.746Z,35.60
2022-09-23T23:29:13.768Z,34.03
2022-09-23T23:31:41.024Z,34.47
2022-09-23T23:34:11.752Z,39.33
2022-09-23T23:36:38.442Z,34.78
2022-09-23T23:39:05.389Z,32.90
2022-09-23T23:41:32.116Z,34.45
2022-09-23T23:44:00.394Z,32.03
2022-09-23T23:46:29.095Z,36.92
2022-09-23T23:48:57.104Z,33.58
2022-09-23T23:51:28.003Z,32.22
2022-09-23T23:53:55.439Z,29.25
2022-09-23T23:56:24.492Z,31.33
2022-09-23T23:58:55.712Z,32.75
